TAF/METAR LISTING

Current time:6/6/2:4 Z
Looking Back to:6/06/02:04 Z, going back 0 hour(s)

METAR:

______________________________________

TAF:
TAFAFA
TAF
PAFA 051738Z 0518/0624 VRB03KT P6SM FEW050 FEW110
FM052300 06005KT P6SM VCTS FEW025 BKN050CB BKN100
FM060800 VRB04KT P6SM VCSH SCT050
FM062300 06004KT P6SM VCTS FEW025 SCT050CB BKN100 =